Impacts METAR Board
IDs:

KANB - Anniston Metro, AL, US

Updated at: 1500 UTC 20 May 2018
Potential Impact None Slight Moderate High
Time 20/03Z 20/04Z 20/05Z 20/06Z 20/07Z 20/08Z 20/09Z 20/10Z 20/11Z 20/12Z 20/13Z 20/14Z 20/15Z
Temp72 71 71 69 68 68 67 67 66 68 73 77 81
Dewpt68 68 68 66 65 66 64 65 64 66 68 70 71
Altim30.06 30.08 30.09 30.09 30.06 30.07 30.07 30.07 30.10 30.12 30.13 30.14 30.13
VIS10 10 10 9 7 8 6 8 5 7 9 10 10
CIG-- -- -- -- -- -- -- -- -- -- -- -- --
CoverCLRCLRCLRCLRCLRCLRCLRCLRCLRCLRCLRCLRCLR
FltCatVFRVFRVFRVFRVFRVFRVFRVFRMVFRVFRVFRVFRVFR
WX------------BR--BR--------
WDir0070170800000908000
WSpd0 0 4 3 3 0 0 0 0 3 3 0 3
WGst-- -- -- -- -- -- -- -- -- -- -- -- --
Raw hourly METARs
KANB 200253Z AUTO 00000KT 10SM CLR 22/20 A3006 RMK AO2 SLP174 T02220200 51016
KANB 200353Z AUTO 00000KT 10SM CLR 22/20 A3008 RMK AO2 SLP179 T02170200
KANB 200453Z AUTO 07004KT 10SM CLR 22/20 A3009 RMK AO2 SLP180 T02170200
KANB 200553Z AUTO 17003KT 9SM CLR 21/19 A3009 RMK AO2 SLP180 T02060189 10294 20206 403110189 51008
KANB 200653Z AUTO 08003KT 7SM CLR 20/18 A3006 RMK AO2 SLP171 T02000183
KANB 200753Z AUTO 00000KT 8SM CLR 20/19 A3007 RMK AO2 SLP174 T02000189
KANB 200853Z AUTO 00000KT 6SM BR CLR 19/18 A3007 RMK AO2 SLP175 T01940178 55006
KANB 200953Z AUTO 00000KT 8SM CLR 19/18 A3007 RMK AO2 SLP175 T01940183
KANB 201053Z AUTO 00000KT 5SM BR CLR 19/18 A3010 RMK AO2 SLP183 T01890178
KANB 201153Z AUTO 09003KT 7SM CLR 20/19 A3012 RMK AO2 SLP191 T02000189 10211 20183 53017
KANB 201253Z AUTO 08003KT 9SM CLR 23/20 A3013 RMK AO2 SLP195 T02280200
KANB 201353Z AUTO 00000KT 10SM CLR 25/21 A3014 RMK AO2 SLP199 T02500211
KANB 201453Z AUTO VRB03KT 10SM CLR 27/22 A3013 RMK AO2 SLP194 T02720217 50002



Page loaded:  15:28 UTC  |   08:28 AM Pacific  |   09:28 AM Mountain  |   10:28 AM Central  |   11:28 AM Eastern

 

ADVISORIES

FORECASTS

FORECASTS

OBSERVATIONS

USER TOOLS

ABOUT US